Time;durP1;ratioP1;P1;durP2;ratioP2;P2;SDS_P1;SDS_P2;PMS_P1;PMS_P2;Temp;Humidity;BMP_temperature;BMP_pressure;BME280_temperature;BME280_humidity;BME280_pressure;Samples;Min_cycle;Max_cycle;Signal;HPM_P1;HPM_P2
2023/03/27 00:01:45;;;;;;;12.45;3.58;;;;;;;2.59;96.65;101431.16;4920339;29;20056;-86
2023/03/27 00:04:27;;;;;;;10.77;2.78;;;;;;;2.67;97.00;101434.34;4836364;29;20582;-86
2023/03/27 00:07:27;;;;;;;13.20;2.70;;;;;;;2.69;97.57;101427.34;4821552;29;20077;-87
2023/03/27 00:10:02;;;;;;;11.18;2.75;;;;;;;2.71;97.68;101445.50;4830222;29;20093;-86
2023/03/27 00:12:45;;;;;;;12.27;3.20;;;;;;;2.69;97.22;101444.69;4850742;29;20147;-86
2023/03/27 00:15:22;;;;;;;;;;;;;;;2.83;96.97;101456.38;4838561;29;20595;-87
2023/03/27 00:18:02;;;;;;;9.65;2.95;;;;;;;2.77;97.35;101460.88;4883711;29;19923;-86
2023/03/27 00:20:41;;;;;;;14.93;3.10;;;;;;;2.80;98.18;101461.66;4858519;29;20037;-86
2023/03/27 00:24:13;;;;;;;;;;;;;;;;;;;;;
2023/03/27 00:26:43;;;;;;;12.35;2.42;;;;;;;2.84;97.65;101483.19;4787746;29;20041;-86
2023/03/27 00:29:33;;;;;;;12.88;3.30;;;;;;;2.82;98.08;101482.41;4817645;29;20099;-86
2023/03/27 00:32:01;;;;;;;13.77;2.92;;;;;;;2.76;97.94;101488.63;4823457;29;20050;-86
2023/03/27 00:34:30;;;;;;;15.70;2.88;;;;;;;2.72;98.39;101484.41;4837391;29;20045;-86
2023/03/27 00:37:04;;;;;;;13.38;3.03;;;;;;;2.70;99.19;101494.00;4875636;29;20045;-86
2023/03/27 00:40:06;;;;;;;15.38;3.25;;;;;;;2.74;98.86;101482.63;4875300;29;20541;-86
2023/03/27 00:42:36;;;;;;;13.43;2.90;;;;;;;2.73;100.00;101487.88;4878961;29;20128;-86
2023/03/27 00:45:05;;;;;;;11.65;2.83;;;;;;;2.67;100.00;101493.25;4875904;29;20320;-86
2023/03/27 00:47:37;;;;;;;10.93;2.90;;;;;;;2.55;99.23;101493.63;4879386;29;20071;-86
2023/03/27 00:50:14;;;;;;;11.50;2.63;;;;;;;2.57;100.00;101500.47;4880631;29;20139;-86
2023/03/27 00:52:43;;;;;;;11.93;3.03;;;;;;;2.50;99.61;101498.97;4886251;29;20036;-86
2023/03/27 00:55:21;;;;;;;12.20;2.45;;;;;;;2.47;100.00;101499.06;4926229;29;20122;-86
2023/03/27 00:57:56;;;;;;;12.05;2.60;;;;;;;2.44;100.00;101515.59;4915411;29;20394;-86
2023/03/27 01:00:22;;;;;;;9.43;2.60;;;;;;;2.41;100.00;101520.88;4918636;29;20035;-86
2023/03/27 01:02:49;;;;;;;9.90;2.63;;;;;;;2.42;100.00;101522.59;4916430;29;20119;-86
2023/03/27 01:05:33;;;;;;;9.82;2.47;;;;;;;2.35;100.00;101515.84;4914686;29;20032;-85
2023/03/27 01:08:05;;;;;;;9.05;2.88;;;;;;;2.29;100.00;101523.81;4922776;29;20114;-86
2023/03/27 01:10:55;;;;;;;11.63;2.47;;;;;;;2.32;100.00;101518.53;4901056;29;20028;-86
2023/03/27 01:14:04;;;;;;;14.23;2.47;;;;;;;2.33;100.00;101517.63;4900070;29;20088;-86
2023/03/27 01:16:40;;;;;;;11.85;2.55;;;;;;;2.24;100.00;101523.09;4920962;29;20051;-86
2023/03/27 01:19:28;;;;;;;9.75;2.85;;;;;;;2.30;100.00;101532.44;4916269;29;20102;-86
2023/03/27 01:22:17;;;;;;;9.52;2.67;;;;;;;2.23;100.00;101534.38;4920238;29;20085;-86
2023/03/27 01:25:33;;;;;;;9.85;2.50;;;;;;;2.25;100.00;101540.38;4908547;29;20030;-86
2023/03/27 01:28:50;;;;;;;9.18;2.42;;;;;;;2.24;100.00;101538.66;4873618;29;20406;-86
2023/03/27 01:31:52;;;;;;;10.60;2.70;;;;;;;2.24;100.00;101548.22;4787663;29;20043;-86
2023/03/27 01:34:54;;;;;;;6.38;2.55;;;;;;;2.27;100.00;101543.78;4787019;29;20607;-86
2023/03/27 01:37:32;;;;;;;10.27;2.92;;;;;;;2.29;100.00;101541.97;4786758;29;20042;-86
2023/03/27 01:40:43;;;;;;;8.45;2.67;;;;;;;2.32;100.00;101546.22;4802187;29;20066;-86
2023/03/27 01:43:32;;;;;;;12.50;3.15;;;;;;;2.35;100.00;101552.19;4802183;29;20035;-87
2023/03/27 01:46:51;;;;;;;8.27;2.90;;;;;;;2.39;100.00;101555.53;4801583;29;20046;-87
2023/03/27 01:49:38;;;;;;;10.82;3.13;;;;;;;2.35;100.00;101559.97;4824423;29;20077;-87
2023/03/27 01:52:19;;;;;;;8.85;2.90;;;;;;;2.37;100.00;101563.38;4893987;29;20440;-86
2023/03/27 01:55:19;;;;;;;9.35;2.90;;;;;;;2.43;100.00;101563.25;4905361;29;20067;-86
2023/03/27 01:58:12;;;;;;;11.63;3.47;;;;;;;2.41;100.00;101572.81;4874730;29;20069;-87
2023/03/27 02:00:54;;;;;;;8.25;3.05;;;;;;;2.39;100.00;101569.38;4896322;29;20586;-86
2023/03/27 02:04:01;;;;;;;10.88;3.35;;;;;;;2.37;100.00;101565.97;4928215;29;20504;-86
2023/03/27 02:06:56;;;;;;;13.15;3.08;;;;;;;2.41;100.00;101562.44;4852047;29;21876;-86
2023/03/27 02:09:32;;;;;;;10.07;3.17;;;;;;;2.40;100.00;101565.03;4883495;29;20050;-86
2023/03/27 02:12:04;;;;;;;9.32;3.03;;;;;;;2.37;100.00;101575.50;4875279;29;20469;-86
2023/03/27 02:14:40;;;;;;;;;;;;;;;2.47;100.00;101588.22;4892635;29;20040;-86
2023/03/27 02:17:32;;;;;;;10.15;3.28;;;;;;;2.37;100.00;101585.91;4859446;29;20483;-86
2023/03/27 02:20:15;;;;;;;13.25;3.47;;;;;;;2.28;100.00;101586.16;4893242;29;20040;-86
2023/03/27 02:22:47;;;;;;;9.73;3.40;;;;;;;2.25;100.00;101594.03;4876152;29;20036;-86
2023/03/27 02:25:29;;;;;;;7.47;3.05;;;;;;;2.27;100.00;101603.50;4883770;29;21248;-86
2023/03/27 02:28:38;;;;;;;10.70;2.80;;;;;;;2.26;100.00;101609.56;4877594;29;20543;-86
2023/03/27 02:31:28;;;;;;;10.40;3.20;;;;;;;2.23;100.00;101606.22;4848618;29;20126;-86
2023/03/27 02:34:33;;;;;;;12.00;3.25;;;;;;;2.20;100.00;101609.75;4873544;29;20079;-86
2023/03/27 02:37:35;;;;;;;13.50;2.90;;;;;;;2.20;100.00;101609.75;4895731;29;20156;-86
2023/03/27 02:40:43;;;;;;;10.27;3.28;;;;;;;2.15;100.00;101609.03;4900849;29;20108;-86
2023/03/27 02:43:28;;;;;;;11.68;3.42;;;;;;;2.06;100.00;101620.50;4904701;29;20040;-86
2023/03/27 02:46:11;;;;;;;10.00;2.90;;;;;;;1.90;100.00;101621.78;4913453;29;20059;-86
2023/03/27 02:48:45;;;;;;;9.25;3.08;;;;;;;1.88;100.00;101619.22;4877025;29;20033;-86
2023/03/27 02:51:30;;;;;;;12.77;3.35;;;;;;;1.84;100.00;101620.19;4897455;29;20115;-86
2023/03/27 02:54:31;;;;;;;10.25;3.30;;;;;;;1.84;100.00;101622.78;4913330;29;20059;-86
2023/03/27 02:57:07;;;;;;;9.32;3.30;;;;;;;1.79;100.00;101624.66;4869159;29;20131;-86
2023/03/27 03:00:19;;;;;;;11.82;3.15;;;;;;;1.77;100.00;101630.78;4912889;29;20127;-86
2023/03/27 03:02:53;;;;;;;9.93;3.33;;;;;;;1.77;100.00;101634.22;4887361;29;20096;-86
2023/03/27 03:05:30;;;;;;;14.95;3.15;;;;;;;1.80;100.00;101631.53;4862561;29;20027;-85
2023/03/27 03:08:08;;;;;;;13.73;3.38;;;;;;;1.77;100.00;101647.19;4906887;29;20118;-85
2023/03/27 03:10:38;;;;;;;12.52;3.35;;;;;;;1.77;100.00;101642.00;4892948;29;20063;-86
2023/03/27 03:13:07;;;;;;;13.27;3.55;;;;;;;1.83;100.00;101651.38;4911792;29;20064;-86
2023/03/27 03:15:39;;;;;;;12.63;3.70;;;;;;;1.85;100.00;101642.66;4895220;29;20308;-85
2023/03/27 03:18:20;;;;;;;13.63;3.10;;;;;;;1.86;100.00;101654.72;4931081;29;20035;-86
2023/03/27 03:20:48;;;;;;;14.93;3.65;;;;;;;1.83;100.00;101653.97;4890829;29;20123;-85
2023/03/27 03:23:17;;;;;;;11.07;2.67;;;;;;;1.80;100.00;101644.50;4931393;29;20396;-85
2023/03/27 03:26:15;;;;;;;11.27;2.97;;;;;;;1.81;100.00;101658.34;4914367;29;20024;-86
2023/03/27 03:28:47;;;;;;;12.50;2.85;;;;;;;1.78;100.00;101673.97;4927238;29;20055;-86
2023/03/27 03:31:22;;;;;;;13.73;3.50;;;;;;;1.74;100.00;101678.41;4929806;29;20472;-86
2023/03/27 03:33:48;;;;;;;12.73;3.05;;;;;;;1.71;100.00;101678.47;4910039;29;20114;-85
2023/03/27 03:36:13;;;;;;;8.80;2.70;;;;;;;1.71;100.00;101688.00;4896280;29;20024;-85
2023/03/27 03:38:42;;;;;;;8.18;2.55;;;;;;;1.69;100.00;101689.78;4929979;29;20400;-86
2023/03/27 03:41:13;;;;;;;11.43;2.92;;;;;;;1.61;100.00;101689.97;4928582;29;20054;-86
2023/03/27 03:44:01;;;;;;;8.15;2.63;;;;;;;1.62;100.00;101701.19;4915471;29;20028;-86
2023/03/27 03:46:30;;;;;;;12.05;2.65;;;;;;;1.52;100.00;101696.19;4915043;29;20045;-86
2023/03/27 03:48:56;;;;;;;10.93;2.95;;;;;;;1.52;100.00;101710.88;4928387;29;20032;-86
2023/03/27 03:51:21;;;;;;;15.70;3.42;;;;;;;1.52;100.00;101705.72;4917096;29;20028;-86
2023/03/27 03:53:50;;;;;;;8.30;2.80;;;;;;;1.54;100.00;101712.56;4893553;29;20040;-86
2023/03/27 03:56:18;;;;;;;11.50;2.95;;;;;;;1.53;100.00;101707.41;4893588;29;20028;-85
2023/03/27 03:58:47;;;;;;;7.93;2.67;;;;;;;1.57;100.00;101716.81;4893605;29;20040;-86
2023/03/27 04:01:13;;;;;;;11.13;2.90;;;;;;;1.55;100.00;101716.00;4930755;29;20035;-86
2023/03/27 04:03:39;;;;;;;17.00;3.35;;;;;;;1.56;100.00;101720.31;4932406;29;20079;-86
2023/03/27 04:06:06;;;;;;;12.05;2.70;;;;;;;1.57;100.00;101727.19;4928546;29;20452;-86
2023/03/27 04:08:35;;;;;;;9.77;3.10;;;;;;;1.62;100.00;101727.13;4899951;29;20108;-86
2023/03/27 04:11:08;;;;;;;8.95;3.17;;;;;;;1.58;100.00;101731.50;4911443;29;20102;-86
2023/03/27 04:13:36;;;;;;;;;;;;;;;1.69;100.00;101737.31;4910586;29;20645;-86
2023/03/27 04:16:01;;;;;;;8.18;3.00;;;;;;;1.50;100.00;101736.84;4917418;29;20432;-86
2023/03/27 04:18:39;;;;;;;16.25;3.15;;;;;;;1.45;100.00;101738.69;4898232;29;20098;-86
2023/03/27 04:21:05;;;;;;;14.45;3.00;;;;;;;1.48;100.00;101737.78;4893384;29;20040;-86
2023/03/27 04:23:37;;;;;;;10.13;3.17;;;;;;;1.48;100.00;101745.56;4910553;29;20043;-86
2023/03/27 04:26:02;;;;;;;8.75;2.92;;;;;;;1.45;100.00;101750.81;4878185;29;20666;-86
2023/03/27 04:28:33;;;;;;;9.63;3.20;;;;;;;1.48;100.00;101758.53;4908830;29;20069;-85
2023/03/27 04:31:09;;;;;;;8.32;2.63;;;;;;;1.47;100.00;101762.84;4890020;29;20048;-86
2023/03/27 04:33:50;;;;;;;8.82;2.88;;;;;;;1.46;100.00;101760.31;4890004;29;20032;-85
2023/03/27 04:36:25;;;;;;;10.80;2.78;;;;;;;1.43;100.00;101771.59;4871527;29;20116;-85
2023/03/27 04:38:54;;;;;;;10.55;3.03;;;;;;;1.38;100.00;101773.44;4911156;29;20408;-86
2023/03/27 04:41:22;;;;;;;8.30;3.15;;;;;;;1.39;100.00;101775.13;4883294;29;20417;-85
2023/03/27 04:43:57;;;;;;;11.82;2.85;;;;;;;1.37;100.00;101776.91;4899333;29;20068;-86
2023/03/27 04:46:28;;;;;;;11.57;3.17;;;;;;;1.31;100.00;101781.38;4928294;29;20730;-86
2023/03/27 04:49:09;;;;;;;11.25;3.15;;;;;;;1.22;100.00;101788.47;4913563;29;20457;-85
2023/03/27 04:51:41;;;;;;;6.32;2.53;;;;;;;1.25;100.00;101782.34;4932491;29;20039;-85
2023/03/27 04:54:07;;;;;;;10.55;3.15;;;;;;;1.23;100.00;101784.97;4911980;29;20080;-85
2023/03/27 04:56:36;;;;;;;12.02;3.08;;;;;;;1.23;100.00;101795.34;4922173;29;20150;-85
2023/03/27 04:59:17;;;;;;;8.60;2.90;;;;;;;1.25;100.00;101798.75;4919893;29;20047;-85
2023/03/27 05:01:42;;;;;;;14.25;3.05;;;;;;;1.30;100.00;101800.41;4905236;29;21078;-85
2023/03/27 05:04:14;;;;;;;18.65;3.33;;;;;;;1.31;100.00;101802.13;4929230;29;20031;-85
2023/03/27 05:06:43;;;;;;;11.32;2.80;;;;;;;1.36;100.00;101810.66;4933281;29;20087;-85
2023/03/27 05:09:20;;;;;;;11.20;2.88;;;;;;;1.29;100.00;101806.47;4896686;29;20040;-85
2023/03/27 05:11:49;;;;;;;8.77;2.90;;;;;;;1.32;100.00;101814.19;4911823;29;20040;-85
2023/03/27 05:14:25;;;;;;;12.40;2.67;;;;;;;1.30;100.00;101815.97;4908657;29;20496;-85
2023/03/27 05:16:53;;;;;;;10.18;3.25;;;;;;;1.37;100.00;101818.41;4924564;29;20416;-85
2023/03/27 05:19:21;;;;;;;7.22;2.63;;;;;;;1.39;100.00;101821.81;4900914;29;20094;-85
2023/03/27 05:21:50;;;;;;;11.38;3.15;;;;;;;1.37;100.00;101838.28;4930620;29;20057;-85
2023/03/27 05:24:25;;;;;;;9.40;2.90;;;;;;;1.43;100.00;101838.16;4932058;29;20625;-85
2023/03/27 05:27:09;;;;;;;9.25;2.78;;;;;;;1.46;100.00;101838.09;4942507;29;20046;-85
2023/03/27 05:29:48;;;;;;;10.73;2.90;;;;;;;1.45;100.00;101838.97;4927847;29;20055;-85
2023/03/27 05:32:20;;;;;;;8.68;2.83;;;;;;;1.45;100.00;101849.34;4906750;29;20036;-85
2023/03/27 05:34:49;;;;;;;11.90;3.58;;;;;;;1.52;100.00;101844.00;4912080;29;20033;-85
2023/03/27 05:37:18;;;;;;;14.60;3.75;;;;;;;1.55;100.00;101853.44;4897465;29;20174;-85
2023/03/27 05:39:46;;;;;;;10.00;3.83;;;;;;;1.57;100.00;101851.69;4929704;29;20090;-86
2023/03/27 05:42:21;;;;;;;12.48;4.30;;;;;;;1.61;100.00;101853.34;4917070;29;20058;-86
2023/03/27 05:44:47;;;;;;;14.00;4.45;;;;;;;1.62;100.00;101855.06;4932366;29;20567;-86
2023/03/27 05:47:15;;;;;;;9.10;4.38;;;;;;;1.66;100.00;101861.03;4915682;29;20040;-86
2023/03/27 05:49:43;;;;;;;14.35;4.70;;;;;;;1.68;100.00;101860.13;4913844;29;20158;-86
2023/03/27 05:52:09;;;;;;;12.20;4.85;;;;;;;1.67;100.00;101863.59;4927646;29;20110;-86
2023/03/27 05:55:02;;;;;;;14.65;4.60;;;;;;;1.72;100.00;101869.53;4932661;29;20047;-86
2023/03/27 05:57:27;;;;;;;11.48;4.18;;;;;;;1.74;100.00;101870.34;4930647;29;20122;-86
2023/03/27 06:00:04;;;;;;;12.23;4.25;;;;;;;1.72;100.00;101877.31;4928928;29;20545;-85
2023/03/27 06:02:33;;;;;;;10.93;3.67;;;;;;;1.71;100.00;101870.44;4910990;29;20404;-86
2023/03/27 06:05:00;;;;;;;12.32;4.13;;;;;;;1.71;100.00;101878.22;4876740;29;20091;-86
2023/03/27 06:07:43;;;;;;;16.55;4.50;;;;;;;1.77;100.00;101883.25;4884936;29;20493;-87
2023/03/27 06:10:21;;;;;;;12.00;3.72;;;;;;;1.85;100.00;101901.25;4875588;29;20040;-86
2023/03/27 06:13:00;;;;;;;18.40;4.18;;;;;;;1.93;100.00;101903.69;4875109;29;20089;-87
2023/03/27 06:15:28;;;;;;;14.48;3.30;;;;;;;2.00;100.00;101916.53;4857399;29;20179;-87
2023/03/27 06:17:57;;;;;;;14.85;3.20;;;;;;;2.06;100.00;101925.91;4877413;29;20616;-88
2023/03/27 06:20:23;;;;;;;6.72;3.30;;;;;;;2.06;100.00;101926.78;4894284;29;20485;-87
2023/03/27 06:23:02;;;;;;;7.57;3.35;;;;;;;2.05;100.00;101937.19;4870908;29;20061;-86
2023/03/27 06:25:42;;;;;;;10.27;3.90;;;;;;;1.99;100.00;101919.13;4872857;29;20040;-86
2023/03/27 06:28:20;;;;;;;6.80;3.60;;;;;;;1.96;100.00;101922.63;4878182;29;20123;-86
2023/03/27 06:30:49;;;;;;;9.82;4.10;;;;;;;1.88;100.00;101920.22;4894272;29;20036;-85
2023/03/27 06:33:20;;;;;;;7.30;3.67;;;;;;;1.92;100.00;101936.56;4892109;29;20508;-85
2023/03/27 06:36:01;;;;;;;14.83;4.27;;;;;;;1.81;100.00;101923.81;4906217;29;20054;-85
2023/03/27 06:38:33;;;;;;;8.82;4.03;;;;;;;1.76;100.00;101928.25;4931643;29;20035;-85
2023/03/27 06:41:04;;;;;;;7.55;3.90;;;;;;;1.77;100.00;101935.16;4916354;29;20481;-85
2023/03/27 06:43:30;;;;;;;9.70;4.72;;;;;;;1.78;100.00;101944.66;4923992;29;20036;-86
2023/03/27 06:45:58;;;;;;;9.30;4.30;;;;;;;1.81;100.00;101939.38;4926792;29;20696;-85
2023/03/27 06:48:30;;;;;;;6.97;3.80;;;;;;;1.78;100.00;101942.06;4913572;29;20043;-85
2023/03/27 06:50:56;;;;;;;6.47;3.90;;;;;;;1.84;100.00;101939.31;4914318;29;20020;-85
2023/03/27 06:53:24;;;;;;;7.10;3.97;;;;;;;1.85;100.00;101945.38;4932678;29;20527;-85
2023/03/27 06:55:57;;;;;;;9.10;4.28;;;;;;;1.89;100.00;101953.06;4931986;29;20040;-84
2023/03/27 06:58:26;;;;;;;7.88;3.85;;;;;;;1.99;100.00;101955.47;4930073;29;20387;-84
2023/03/27 07:01:00;;;;;;;9.40;3.85;;;;;;;2.07;100.00;101958.78;4911936;29;20448;-84
2023/03/27 07:03:26;;;;;;;5.20;3.40;;;;;;;2.20;100.00;101960.22;4905421;29;20032;-83
2023/03/27 07:05:59;;;;;;;6.30;3.45;;;;;;;2.30;100.00;101968.66;4916018;29;20119;-84
2023/03/27 07:08:27;;;;;;;8.48;3.65;;;;;;;2.39;100.00;101968.44;4926861;29;20028;-84
2023/03/27 07:10:56;;;;;;;6.68;3.50;;;;;;;2.51;100.00;101969.06;4923708;29;20032;-83
2023/03/27 07:13:28;;;;;;;6.70;3.33;;;;;;;2.61;100.00;101969.69;4927804;29;20040;-84
2023/03/27 07:15:56;;;;;;;8.63;3.33;;;;;;;2.71;100.00;101972.91;4916520;29;20044;-84
2023/03/27 07:18:22;;;;;;;7.82;3.35;;;;;;;2.97;100.00;101977.50;4895673;29;20029;-85
2023/03/27 07:20:57;;;;;;;6.57;3.28;;;;;;;3.13;100.00;101979.69;4875203;29;20092;-84
2023/03/27 07:23:22;;;;;;;5.90;3.05;;;;;;;3.28;100.00;101980.22;4898031;29;20040;-85
2023/03/27 07:25:51;;;;;;;6.50;3.30;;;;;;;3.52;100.00;101984.75;4904574;29;20046;-85
2023/03/27 07:28:37;;;;;;;7.00;2.92;;;;;;;3.71;100.00;101988.59;4872680;29;20152;-85
2023/03/27 07:31:15;;;;;;;7.22;3.05;;;;;;;3.95;100.00;101986.19;4876147;29;20097;-85
2023/03/27 07:33:50;;;;;;;6.75;3.20;;;;;;;4.16;100.00;101998.63;4883785;29;20033;-85
2023/03/27 07:36:25;;;;;;;6.97;2.75;;;;;;;4.32;100.00;101992.06;4859299;29;20040;-85
2023/03/27 07:38:50;;;;;;;5.90;2.50;;;;;;;4.56;100.00;102002.66;4864641;29;20053;-85
2023/03/27 07:41:19;;;;;;;5.50;2.45;;;;;;;4.54;97.55;101996.63;4884492;29;20028;-85
2023/03/27 07:43:45;;;;;;;9.18;2.33;;;;;;;4.68;96.88;101999.66;4888324;29;20410;-84
2023/03/27 07:46:21;;;;;;;8.45;2.42;;;;;;;4.79;95.17;101997.56;4884603;29;20035;-85
2023/03/27 07:48:49;;;;;;;8.73;2.20;;;;;;;5.01;95.71;102002.97;4887713;29;20148;-85
2023/03/27 07:51:44;;;;;;;5.72;2.20;;;;;;;5.28;95.32;102009.06;4886974;29;20025;-85
2023/03/27 07:54:21;;;;;;;11.20;2.78;;;;;;;5.40;91.68;102010.38;4876252;29;20041;-85
2023/03/27 07:56:52;;;;;;;8.32;2.50;;;;;;;5.55;90.07;102015.06;4854453;29;20045;-85
2023/03/27 07:59:24;;;;;;;7.82;2.08;;;;;;;5.70;88.19;102013.72;4898643;29;20119;-85
2023/03/27 08:01:56;;;;;;;8.20;2.55;;;;;;;5.80;87.88;102022.94;4886593;29;20032;-85
2023/03/27 08:04:25;;;;;;;6.40;2.20;;;;;;;6.04;87.38;102027.31;4901438;29;20393;-86
2023/03/27 08:07:04;;;;;;;9.45;2.47;;;;;;;6.23;87.33;102015.28;4886140;29;20750;-86
2023/03/27 08:09:40;;;;;;;12.75;2.38;;;;;;;6.36;86.15;102014.81;4887908;29;20032;-86
2023/03/27 08:12:15;;;;;;;7.60;2.15;;;;;;;6.54;83.83;102014.13;4874328;29;20048;-84
2023/03/27 08:14:45;;;;;;;10.27;2.75;;;;;;;6.68;82.89;102022.28;4877610;29;20033;-87
2023/03/27 08:17:17;;;;;;;8.68;2.17;;;;;;;6.86;81.97;102025.97;4890305;29;20578;-87
2023/03/27 08:19:46;;;;;;;11.63;2.33;;;;;;;6.94;79.99;102030.88;4923300;29;20445;-86
2023/03/27 08:22:11;;;;;;;9.88;2.00;;;;;;;6.88;78.90;102030.22;4924936;29;20035;-87
2023/03/27 08:24:37;;;;;;;7.22;1.88;;;;;;;6.68;78.03;102045.81;4923979;29;20050;-86
2023/03/27 08:27:03;;;;;;;10.73;2.10;;;;;;;6.32;80.73;102055.03;4895959;29;20444;-87
2023/03/27 08:29:43;;;;;;;5.72;1.80;;;;;;;5.94;84.83;102050.28;4895959;29;20489;-84
2023/03/27 08:32:12;;;;;;;6.38;1.15;;;;;;;5.56;82.01;102051.56;4925082;29;20048;-84
2023/03/27 08:34:44;;;;;;;5.70;1.13;;;;;;;5.44;83.30;102056.34;4910533;29;20039;-85
2023/03/27 08:37:18;;;;;;;5.22;1.40;;;;;;;5.46;83.24;102047.56;4914778;29;20562;-83
2023/03/27 08:40:07;;;;;;;;;;;;;;;;;;;;;
2023/03/27 08:43:06;;;;;;;7.10;1.77;;;;;;;5.74;85.33;102057.94;4911871;29;20054;-85
2023/03/27 08:45:48;;;;;;;10.60;2.28;;;;;;;6.06;83.24;102059.47;4903332;29;20052;-85
2023/03/27 08:48:29;;;;;;;13.40;2.20;;;;;;;6.31;81.67;102050.72;4925631;29;20424;-85
2023/03/27 08:51:48;;;;;;;9.55;2.33;;;;;;;6.68;82.87;102069.34;4932470;29;20031;-85
2023/03/27 08:54:48;;;;;;;10.60;2.38;;;;;;;7.12;82.94;102056.28;4886529;29;20037;-85
2023/03/27 08:57:31;;;;;;;18.20;2.55;;;;;;;7.38;79.11;102061.34;4872788;29;20044;-85
2023/03/27 09:00:04;;;;;;;8.75;2.38;;;;;;;7.56;76.95;102064.94;4855183;29;20721;-85
2023/03/27 09:02:43;;;;;;;;;;;;;;;7.97;82.86;102065.81;4848592;29;20495;-86
2023/03/27 09:05:22;;;;;;;12.57;1.90;;;;;;;7.89;74.51;102067.91;4860744;29;20424;-86
2023/03/27 09:08:06;;;;;;;9.93;1.80;;;;;;;7.74;70.30;102073.81;4848639;29;20431;-85
2023/03/27 09:11:18;;;;;;;6.13;1.77;;;;;;;7.72;72.77;102078.28;4862758;29;20103;-86
2023/03/27 09:13:55;;;;;;;6.18;1.55;;;;;;;7.97;71.60;102070.19;4807325;29;20048;-86
2023/03/27 09:17:09;;;;;;;9.10;1.40;;;;;;;8.40;69.48;102071.78;4872277;29;20041;-86
2023/03/27 09:20:22;;;;;;;6.85;1.30;;;;;;;8.62;67.27;102079.56;4837937;29;20050;-87
2023/03/27 09:23:26;;;;;;;5.47;1.60;;;;;;;9.00;66.88;102111.91;4820356;29;20049;-86
2023/03/27 09:26:14;;;;;;;5.32;1.20;;;;;;;8.11;72.75;102138.63;4824993;29;20688;-87
2023/03/27 09:35:44;;;;;;;;;;;;;;;;;;;;;
2023/03/27 09:42:49;;;;;;;3.97;0.73;;;;;;;4.43;89.30;102129.00;4766104;30;20042;-87
2023/03/27 09:45:18;;;;;;;2.53;0.65;;;;;;;4.18;89.71;102115.78;4736269;30;20048;-87
2023/03/27 09:48:25;;;;;;;4.00;0.73;;;;;;;4.28;89.40;102122.44;4762930;30;20040;-87
2023/03/27 09:51:01;;;;;;;3.40;0.60;;;;;;;4.49;90.92;102123.63;4747742;30;20133;-84
2023/03/27 09:57:21;;;;;;;4.95;1.13;;;;;;;5.10;88.04;102137.44;4809505;29;20432;-87
2023/03/27 10:00:26;;;;;;;4.50;1.48;;;;;;;5.25;83.63;102137.84;4825084;29;20038;-86
2023/03/27 10:06:10;;;;;;;4.68;1.05;;;;;;;6.15;81.58;102152.34;4869428;29;20222;-86
2023/03/27 10:09:06;;;;;;;5.28;1.30;;;;;;;7.79;77.48;102146.06;4872678;29;20044;-87
2023/03/27 10:11:38;;;;;;;3.80;1.02;;;;;;;10.55;68.38;102146.16;4892941;29;20457;-86
2023/03/27 10:14:16;;;;;;;4.75;1.70;;;;;;;12.59;58.09;102143.28;4915647;29;20079;-86
2023/03/27 10:17:13;;;;;;;5.97;1.80;;;;;;;14.11;60.51;102138.66;4914041;29;20048;-86
2023/03/27 10:19:50;;;;;;;3.88;1.30;;;;;;;14.74;49.42;102137.81;4948437;29;20039;-86
2023/03/27 10:22:39;;;;;;;3.22;1.00;;;;;;;15.77;53.18;102125.91;4917093;29;20538;-86
2023/03/27 10:25:25;;;;;;;3.67;1.40;;;;;;;16.17;47.85;102129.00;4926311;29;20083;-86
2023/03/27 10:28:30;;;;;;;3.67;1.20;;;;;;;15.85;52.20;102121.69;4932626;29;20042;-86
2023/03/27 10:31:33;;;;;;;2.10;0.95;;;;;;;15.10;50.85;102128.19;4919481;29;20074;-86
2023/03/27 10:34:28;;;;;;;4.43;0.95;;;;;;;16.32;48.37;102125.16;4895410;29;20472;-86
2023/03/27 10:37:38;;;;;;;3.20;1.00;;;;;;;16.65;47.70;102121.69;4909864;29;20504;-86
2023/03/27 10:44:01;;;;;;;4.40;1.13;;;;;;;15.88;50.12;102120.63;4801500;29;20054;-85
2023/03/27 10:50:37;;;;;;;5.95;1.20;;;;;;;13.96;50.55;102134.41;4742526;30;20067;-86
2023/03/27 10:54:04;;;;;;;;;;;;;;;;;;;;;
2023/03/27 11:01:05;;;;;;;5.95;1.20;;;;;;;11.65;56.88;102157.69;4756989;30;20101;-86
2023/03/27 11:14:05;;;;;;;6.13;1.30;;;;;;;6.75;78.42;102195.50;4808802;29;20046;-85
2023/03/27 11:17:28;;;;;;;6.15;1.40;;;;;;;6.40;79.84;102194.16;4808244;29;20432;-85
2023/03/27 11:20:42;;;;;;;;;;;;;;;;;;;;;
2023/03/27 11:24:03;;;;;;;6.70;1.80;;;;;;;6.52;87.98;102199.81;4780335;29;20133;-85
2023/03/27 11:27:14;;;;;;;3.65;1.30;;;;;;;6.68;89.73;102205.34;4778699;29;20050;-84
2023/03/27 11:34:06;;;;;;;6.22;1.42;;;;;;;6.69;84.73;102200.97;4839320;29;20136;-85
2023/03/27 11:37:20;;;;;;;3.50;1.50;;;;;;;6.89;84.47;102199.34;4822172;29;20082;-85
2023/03/27 11:47:25;;;;;;;;;;;;;;;;;;;;;
2023/03/27 11:53:56;;;;;;;;;;;;;;;;;;;;;
2023/03/27 11:58:29;;;;;;;;;;;;;;;;;;;;;
2023/03/27 12:11:37;;;;;;;3.70;1.02;;;;;;;8.59;65.68;102185.47;4910600;29;20126;-83
2023/03/27 12:18:21;;;;;;;5.85;1.42;;;;;;;9.23;64.45;102208.84;4911962;29;20127;-86
2023/03/27 12:35:56;;;;;;;0.90;0.40;;;;;;;6.69;69.80;102256.75;4871767;29;20071;-83
2023/03/27 12:39:03;;;;;;;1.73;0.50;;;;;;;6.60;74.87;102241.38;4861133;29;20089;-86
2023/03/27 12:45:59;;;;;;;;;;;;;;;;;;;;;
2023/03/27 12:52:18;;;;;;;4.60;1.08;;;;;;;7.65;71.53;102231.38;4847260;29;20037;-86
2023/03/27 12:55:23;;;;;;;4.88;1.27;;;;;;;8.13;71.75;102226.75;4858319;29;20045;-86
2023/03/27 13:02:03;;;;;;;;;;;;;;;;;;;;;
2023/03/27 13:12:29;;;;;;;;;;;;;;;;;;;;;
2023/03/27 13:40:00;;;;;;;;;;;;;;;;;;;;;
2023/03/27 14:29:35;;;;;;;5.88;1.42;;;;;;;8.19;56.22;102254.50;4917987;29;20039;-85
2023/03/27 14:56:44;;;;;;;6.43;1.60;;;;;;;8.56;53.63;102280.06;4770023;29;20035;-85
2023/03/27 15:10:11;;;;;;;4.05;1.70;;;;;;;7.54;64.68;102312.97;4874012;29;20043;-86
2023/03/27 15:23:23;;;;;;;8.52;1.85;;;;;;;7.99;62.80;102307.69;4828112;29;20579;-87
2023/03/27 15:26:46;;;;;;;8.10;1.85;;;;;;;8.05;62.79;102304.88;4772388;29;20039;-87
2023/03/27 15:29:52;;;;;;;8.70;2.20;;;;;;;7.98;62.90;102323.50;4812689;29;20066;-87
2023/03/27 15:32:31;;;;;;;8.02;2.00;;;;;;;7.70;61.55;102323.72;4818854;29;20110;-86
2023/03/27 15:35:43;;;;;;;10.20;1.80;;;;;;;7.77;63.95;102327.81;4819688;29;20102;-88
2023/03/27 15:38:33;;;;;;;10.98;1.90;;;;;;;7.65;62.57;102331.78;4824746;29;20469;-87
2023/03/27 15:41:40;;;;;;;7.38;1.80;;;;;;;7.61;62.17;102326.72;4843807;29;20045;-87
2023/03/27 15:44:27;;;;;;;14.85;2.28;;;;;;;7.60;62.91;102338.06;4853418;29;20041;-86
2023/03/27 15:47:01;;;;;;;10.63;2.03;;;;;;;7.47;59.30;102327.19;4841206;29;20495;-86
2023/03/27 15:49:36;;;;;;;6.57;1.60;;;;;;;7.28;58.68;102334.03;4838894;29;20038;-87
2023/03/27 15:52:34;;;;;;;5.55;1.88;;;;;;;7.30;59.32;102330.44;4836913;29;20049;-87
2023/03/27 15:55:33;;;;;;;9.65;1.95;;;;;;;7.21;58.10;102331.66;4837489;29;20040;-87
2023/03/27 15:58:25;;;;;;;6.13;1.85;;;;;;;7.26;59.17;102338.47;4857760;29;20093;-87
2023/03/27 16:01:58;;;;;;;6.40;1.45;;;;;;;7.11;59.70;102335.47;4879499;29;20054;-88
2023/03/27 16:04:57;;;;;;;5.75;1.80;;;;;;;6.86;60.41;102340.75;4802479;29;20069;-88
2023/03/27 16:07:38;;;;;;;6.72;1.80;;;;;;;6.98;62.33;102338.59;4868975;29;20451;-88
2023/03/27 16:10:06;;;;;;;9.25;2.40;;;;;;;6.91;62.68;102333.56;4857709;29;20066;-87
2023/03/27 16:13:07;;;;;;;7.53;2.00;;;;;;;6.97;63.04;102336.88;4839252;29;20064;-87
2023/03/27 16:15:40;;;;;;;7.60;2.00;;;;;;;7.04;63.25;102344.47;4837176;29;20157;-88
2023/03/27 16:18:52;;;;;;;8.43;1.95;;;;;;;7.08;64.20;102355.69;4850774;29;20619;-88
2023/03/27 16:22:07;;;;;;;9.30;1.60;;;;;;;7.09;63.57;102342.53;4854734;29;20495;-88
2023/03/27 16:24:58;;;;;;;7.90;1.83;;;;;;;6.98;62.42;102351.69;4865633;29;20922;-88
2023/03/27 16:28:16;;;;;;;8.55;1.90;;;;;;;7.03;62.37;102357.59;4829179;29;20489;-88
2023/03/27 16:30:53;;;;;;;6.28;1.70;;;;;;;7.23;62.38;102357.78;4825939;29;20046;-87
2023/03/27 16:33:33;;;;;;;6.00;1.58;;;;;;;7.29;58.90;102346.22;4818082;29;20049;-86